Naval Anacostia Annex, DC

11:38 AM EST on November 27, 2014 (GMT -0500)
Capitol Hill, Washington, DC USA | Change Station
CLOSE
Current Station
Personal Weather Station
Location: Washington, DC
Elevation: 92 ft
Nearby Weather Stations

Elev 92 ft 38.89 °N, 76.99 °W | Updated 8 minutes ago

Mostly Cloudy
Mostly Cloudy
44.2 °F
Feels Like 44 °F
N
0.0
Wind Variable Wind from North

Today
High -- | Low -- °F
--% Chance of Precip.
Yesterday
High -- | Low -- °F
Precip. -- in
7:03 AM 4:47 PM
Waxing Crescent, 31% visible
Pressure 30.07 in
Visibility 10.0 miles
Clouds Few 3000 ft
Scattered Clouds 5000 ft
Mostly Cloudy 7000 ft
Mostly Cloudy 25000 ft
Windchill 44 °F
Dew Point 39 °F
Humidity 82%
Rainfall 0.00 in
Snow Depth Not available.
UV 1 out of 12
Pollen .10 out of 12
Air Quality Not available.
Flu Activity Not available.
METAR KDCA 271552Z 01003KT 10SM FEW030 SCT050 BKN070 BKN250 07/01 A3007 RMK AO2 SLP181 T00670011

More Conditions Fewer Conditions

Pressure 30.07 in
Visibility 10.0 miles
Clouds Few 3000 ft
Scattered Clouds 5000 ft
Mostly Cloudy 7000 ft
Mostly Cloudy 25000 ft
Windchill 44 °F
Dew Point 39 °F
Humidity 82%
Rainfall 0.00 in
Snow Depth Not available.
UV 1 out of 12
Pollen .10 out of 12
Air Quality Not available.
Flu Activity Not available.
METAR KDCA 271552Z 01003KT 10SM FEW030 SCT050 BKN070 BKN250 07/01 A3007 RMK AO2 SLP181 T00670011

More Conditions Fewer Conditions

10-Day Weather Forecast

Almanac

Astronomy

Nov. 27, 2014 Rise Set
Actual Time
Civil Twilight
Nautical Twilight
Astronomical Twilight
Moon
Length of Visible Light
Length of Day
Tomorrow will be .
, % of the Moon is Illuminated

Today's Extremes

State Highs State Lows

Community

WunderPhotos

Upload Photos

1,774,035 photos uploaded!

WunderBlogs® & News

Nearby

Air Quality

  Air Quality AQ Index Pollutant
Not available.

Snow Depth

Station Depth Elevation

Earthquake Activity

City Distance Mag. Time & Date
Minimum magnitude displayed is 2.5.

Coastal Water Temperatures

Place Temperature

Nearby Weather Stations